sensor_id;sensor_type;location;lat;lon;timestamp;P1;durP1;ratioP1;P2;durP2;ratioP2
78858;SDS011;68210;52.032;4.634;2024-02-14T00:01:26;17.73;;;11.18;;
78858;SDS011;68210;52.032;4.634;2024-02-14T00:03:26;16.55;;;11.30;;
78858;SDS011;68210;52.032;4.634;2024-02-14T00:05:27;15.43;;;10.27;;
78858;SDS011;68210;52.032;4.634;2024-02-14T00:07:28;19.17;;;11.02;;
78858;SDS011;68210;52.032;4.634;2024-02-14T00:09:29;17.13;;;11.68;;
78858;SDS011;68210;52.032;4.634;2024-02-14T00:11:29;13.57;;;9.95;;
78858;SDS011;68210;52.032;4.634;2024-02-14T00:13:29;16.55;;;12.15;;
78858;SDS011;68210;52.032;4.634;2024-02-14T00:15:34;16.25;;;11.63;;
78858;SDS011;68210;52.032;4.634;2024-02-14T00:17:34;16.92;;;11.05;;
78858;SDS011;68210;52.032;4.634;2024-02-14T00:19:35;19.38;;;12.07;;
78858;SDS011;68210;52.032;4.634;2024-02-14T00:21:35;19.90;;;12.27;;
78858;SDS011;68210;52.032;4.634;2024-02-14T00:23:36;16.02;;;10.60;;
78858;SDS011;68210;52.032;4.634;2024-02-14T00:25:36;17.45;;;11.63;;
78858;SDS011;68210;52.032;4.634;2024-02-14T00:27:37;17.60;;;12.38;;
78858;SDS011;68210;52.032;4.634;2024-02-14T00:29:37;18.25;;;11.82;;
78858;SDS011;68210;52.032;4.634;2024-02-14T00:31:38;17.60;;;12.50;;
78858;SDS011;68210;52.032;4.634;2024-02-14T00:33:38;18.92;;;12.02;;
78858;SDS011;68210;52.032;4.634;2024-02-14T00:35:38;20.52;;;12.93;;
78858;SDS011;68210;52.032;4.634;2024-02-14T00:37:39;21.70;;;12.80;;
78858;SDS011;68210;52.032;4.634;2024-02-14T00:39:39;17.70;;;13.52;;
78858;SDS011;68210;52.032;4.634;2024-02-14T00:41:40;20.17;;;12.00;;
78858;SDS011;68210;52.032;4.634;2024-02-14T00:43:40;18.77;;;12.10;;
78858;SDS011;68210;52.032;4.634;2024-02-14T00:45:40;22.65;;;13.10;;
78858;SDS011;68210;52.032;4.634;2024-02-14T00:47:41;22.52;;;14.10;;
78858;SDS011;68210;52.032;4.634;2024-02-14T00:49:41;19.85;;;12.68;;
78858;SDS011;68210;52.032;4.634;2024-02-14T00:51:42;21.98;;;13.55;;
78858;SDS011;68210;52.032;4.634;2024-02-14T00:53:42;21.63;;;13.90;;
78858;SDS011;68210;52.032;4.634;2024-02-14T00:55:43;20.17;;;12.88;;
78858;SDS011;68210;52.032;4.634;2024-02-14T00:57:43;18.15;;;11.63;;
78858;SDS011;68210;52.032;4.634;2024-02-14T00:59:44;18.73;;;12.18;;
78858;SDS011;68210;52.032;4.634;2024-02-14T01:01:44;19.98;;;13.23;;
78858;SDS011;68210;52.032;4.634;2024-02-14T01:03:45;22.35;;;14.73;;
78858;SDS011;68210;52.032;4.634;2024-02-14T01:05:46;20.92;;;14.05;;
78858;SDS011;68210;52.032;4.634;2024-02-14T01:07:47;19.60;;;13.38;;
78858;SDS011;68210;52.032;4.634;2024-02-14T01:09:48;19.38;;;11.50;;
78858;SDS011;68210;52.032;4.634;2024-02-14T01:11:48;21.20;;;13.10;;
78858;SDS011;68210;52.032;4.634;2024-02-14T01:13:49;18.02;;;12.48;;
78858;SDS011;68210;52.032;4.634;2024-02-14T01:15:49;18.73;;;12.02;;
78858;SDS011;68210;52.032;4.634;2024-02-14T01:17:50;18.88;;;12.68;;
78858;SDS011;68210;52.032;4.634;2024-02-14T01:19:50;21.25;;;12.93;;
78858;SDS011;68210;52.032;4.634;2024-02-14T01:21:51;19.33;;;12.40;;
78858;SDS011;68210;52.032;4.634;2024-02-14T01:23:51;19.02;;;12.93;;
78858;SDS011;68210;52.032;4.634;2024-02-14T01:25:52;18.70;;;11.70;;
78858;SDS011;68210;52.032;4.634;2024-02-14T01:27:54;19.92;;;11.35;;
78858;SDS011;68210;52.032;4.634;2024-02-14T01:29:54;21.67;;;11.50;;
78858;SDS011;68210;52.032;4.634;2024-02-14T01:31:57;13.07;;;9.85;;
78858;SDS011;68210;52.032;4.634;2024-02-14T01:33:57;17.30;;;9.77;;
78858;SDS011;68210;52.032;4.634;2024-02-14T01:36:01;15.68;;;10.35;;
78858;SDS011;68210;52.032;4.634;2024-02-14T01:38:02;14.98;;;10.13;;
78858;SDS011;68210;52.032;4.634;2024-02-14T01:40:06;16.98;;;10.93;;
78858;SDS011;68210;52.032;4.634;2024-02-14T01:42:07;15.80;;;9.88;;
78858;SDS011;68210;52.032;4.634;2024-02-14T01:44:08;16.58;;;10.98;;
78858;SDS011;68210;52.032;4.634;2024-02-14T01:46:10;13.70;;;10.50;;
78858;SDS011;68210;52.032;4.634;2024-02-14T01:48:11;16.15;;;10.25;;
78858;SDS011;68210;52.032;4.634;2024-02-14T01:50:11;18.75;;;11.30;;
78858;SDS011;68210;52.032;4.634;2024-02-14T01:52:11;15.85;;;10.13;;
78858;SDS011;68210;52.032;4.634;2024-02-14T01:54:12;17.58;;;10.10;;
78858;SDS011;68210;52.032;4.634;2024-02-14T01:56:14;14.88;;;10.65;;
78858;SDS011;68210;52.032;4.634;2024-02-14T01:58:15;19.23;;;10.98;;
78858;SDS011;68210;52.032;4.634;2024-02-14T02:00:16;14.13;;;10.15;;
78858;SDS011;68210;52.032;4.634;2024-02-14T02:02:18;15.90;;;10.13;;
78858;SDS011;68210;52.032;4.634;2024-02-14T02:04:19;15.00;;;9.45;;
78858;SDS011;68210;52.032;4.634;2024-02-14T02:06:20;17.58;;;9.60;;
78858;SDS011;68210;52.032;4.634;2024-02-14T02:08:21;13.70;;;9.43;;
78858;SDS011;68210;52.032;4.634;2024-02-14T02:10:21;19.92;;;9.18;;
78858;SDS011;68210;52.032;4.634;2024-02-14T02:12:22;14.70;;;9.20;;
78858;SDS011;68210;52.032;4.634;2024-02-14T02:14:27;13.20;;;8.68;;
78858;SDS011;68210;52.032;4.634;2024-02-14T02:16:28;14.32;;;9.32;;
78858;SDS011;68210;52.032;4.634;2024-02-14T02:18:28;14.82;;;9.30;;
78858;SDS011;68210;52.032;4.634;2024-02-14T02:20:28;13.35;;;8.75;;
78858;SDS011;68210;52.032;4.634;2024-02-14T02:22:29;12.73;;;8.50;;
78858;SDS011;68210;52.032;4.634;2024-02-14T02:24:32;13.60;;;8.52;;
78858;SDS011;68210;52.032;4.634;2024-02-14T02:26:32;14.48;;;8.55;;
78858;SDS011;68210;52.032;4.634;2024-02-14T02:28:33;14.48;;;9.18;;
78858;SDS011;68210;52.032;4.634;2024-02-14T02:30:33;12.43;;;8.60;;
78858;SDS011;68210;52.032;4.634;2024-02-14T02:32:35;11.88;;;8.10;;
78858;SDS011;68210;52.032;4.634;2024-02-14T02:34:36;14.63;;;9.15;;
78858;SDS011;68210;52.032;4.634;2024-02-14T02:36:39;11.93;;;8.85;;
78858;SDS011;68210;52.032;4.634;2024-02-14T02:38:41;14.73;;;9.88;;
78858;SDS011;68210;52.032;4.634;2024-02-14T02:40:42;13.45;;;8.80;;
78858;SDS011;68210;52.032;4.634;2024-02-14T02:42:42;16.50;;;9.60;;
78858;SDS011;68210;52.032;4.634;2024-02-14T02:44:49;18.20;;;10.50;;
78858;SDS011;68210;52.032;4.634;2024-02-14T02:46:50;19.83;;;12.68;;
78858;SDS011;68210;52.032;4.634;2024-02-14T02:48:51;22.58;;;13.65;;
78858;SDS011;68210;52.032;4.634;2024-02-14T02:50:54;21.23;;;12.75;;
78858;SDS011;68210;52.032;4.634;2024-02-14T02:52:55;19.70;;;12.13;;
78858;SDS011;68210;52.032;4.634;2024-02-14T02:54:55;17.63;;;12.35;;
78858;SDS011;68210;52.032;4.634;2024-02-14T02:56:55;22.95;;;13.30;;
78858;SDS011;68210;52.032;4.634;2024-02-14T02:58:56;24.48;;;14.20;;
78858;SDS011;68210;52.032;4.634;2024-02-14T03:00:57;19.42;;;12.77;;
78858;SDS011;68210;52.032;4.634;2024-02-14T03:02:58;22.48;;;14.05;;
78858;SDS011;68210;52.032;4.634;2024-02-14T03:04:58;22.70;;;14.10;;
78858;SDS011;68210;52.032;4.634;2024-02-14T03:06:59;25.30;;;13.52;;
78858;SDS011;68210;52.032;4.634;2024-02-14T03:08:59;22.83;;;13.95;;
78858;SDS011;68210;52.032;4.634;2024-02-14T03:11:06;21.42;;;12.80;;
78858;SDS011;68210;52.032;4.634;2024-02-14T03:13:07;19.50;;;11.85;;
78858;SDS011;68210;52.032;4.634;2024-02-14T03:15:11;26.83;;;12.38;;
78858;SDS011;68210;52.032;4.634;2024-02-14T03:17:13;19.75;;;11.85;;
78858;SDS011;68210;52.032;4.634;2024-02-14T03:19:13;24.40;;;12.68;;
78858;SDS011;68210;52.032;4.634;2024-02-14T03:21:14;24.42;;;12.73;;
78858;SDS011;68210;52.032;4.634;2024-02-14T03:23:14;21.52;;;10.93;;
78858;SDS011;68210;52.032;4.634;2024-02-14T03:25:18;17.25;;;10.50;;
78858;SDS011;68210;52.032;4.634;2024-02-14T03:27:19;18.05;;;9.75;;
78858;SDS011;68210;52.032;4.634;2024-02-14T03:29:20;17.70;;;10.02;;
78858;SDS011;68210;52.032;4.634;2024-02-14T03:31:21;22.27;;;10.30;;
78858;SDS011;68210;52.032;4.634;2024-02-14T03:33:21;19.60;;;10.38;;
78858;SDS011;68210;52.032;4.634;2024-02-14T03:35:22;24.80;;;10.50;;
78858;SDS011;68210;52.032;4.634;2024-02-14T03:37:22;24.75;;;9.55;;
78858;SDS011;68210;52.032;4.634;2024-02-14T03:39:22;18.77;;;10.20;;
78858;SDS011;68210;52.032;4.634;2024-02-14T03:41:23;14.50;;;8.43;;
78858;SDS011;68210;52.032;4.634;2024-02-14T03:43:23;21.25;;;10.32;;
78858;SDS011;68210;52.032;4.634;2024-02-14T03:45:24;19.52;;;8.25;;
78858;SDS011;68210;52.032;4.634;2024-02-14T03:47:24;18.15;;;8.27;;
78858;SDS011;68210;52.032;4.634;2024-02-14T03:49:26;22.55;;;9.32;;
78858;SDS011;68210;52.032;4.634;2024-02-14T03:51:26;16.67;;;8.73;;
78858;SDS011;68210;52.032;4.634;2024-02-14T03:53:27;17.30;;;8.02;;
78858;SDS011;68210;52.032;4.634;2024-02-14T03:55:27;16.05;;;7.63;;
78858;SDS011;68210;52.032;4.634;2024-02-14T03:59:30;23.77;;;7.93;;
78858;SDS011;68210;52.032;4.634;2024-02-14T04:01:31;18.08;;;7.25;;
78858;SDS011;68210;52.032;4.634;2024-02-14T04:03:31;20.52;;;7.38;;
78858;SDS011;68210;52.032;4.634;2024-02-14T04:05:31;14.43;;;7.30;;
78858;SDS011;68210;52.032;4.634;2024-02-14T04:07:32;19.90;;;7.70;;
78858;SDS011;68210;52.032;4.634;2024-02-14T04:09:34;22.00;;;8.20;;
78858;SDS011;68210;52.032;4.634;2024-02-14T04:11:34;14.70;;;7.30;;
78858;SDS011;68210;52.032;4.634;2024-02-14T04:13:35;21.33;;;7.78;;
78858;SDS011;68210;52.032;4.634;2024-02-14T04:15:35;22.40;;;8.75;;
78858;SDS011;68210;52.032;4.634;2024-02-14T04:17:36;19.77;;;8.15;;
78858;SDS011;68210;52.032;4.634;2024-02-14T04:19:36;19.08;;;7.75;;
78858;SDS011;68210;52.032;4.634;2024-02-14T04:21:37;19.95;;;8.57;;
78858;SDS011;68210;52.032;4.634;2024-02-14T04:23:37;18.23;;;8.52;;
78858;SDS011;68210;52.032;4.634;2024-02-14T04:25:39;15.43;;;7.53;;
78858;SDS011;68210;52.032;4.634;2024-02-14T04:27:40;17.00;;;8.52;;
78858;SDS011;68210;52.032;4.634;2024-02-14T04:29:40;15.90;;;7.75;;
78858;SDS011;68210;52.032;4.634;2024-02-14T04:31:40;22.70;;;8.73;;
78858;SDS011;68210;52.032;4.634;2024-02-14T04:33:42;22.25;;;8.13;;
78858;SDS011;68210;52.032;4.634;2024-02-14T04:35:44;21.92;;;10.40;;
78858;SDS011;68210;52.032;4.634;2024-02-14T04:37:44;23.25;;;9.02;;
78858;SDS011;68210;52.032;4.634;2024-02-14T04:39:46;17.88;;;9.88;;
78858;SDS011;68210;52.032;4.634;2024-02-14T04:41:46;16.45;;;8.88;;
78858;SDS011;68210;52.032;4.634;2024-02-14T04:43:47;21.42;;;9.27;;
78858;SDS011;68210;52.032;4.634;2024-02-14T04:45:47;20.58;;;9.60;;
78858;SDS011;68210;52.032;4.634;2024-02-14T04:47:48;24.15;;;10.52;;
78858;SDS011;68210;52.032;4.634;2024-02-14T04:49:48;24.05;;;9.55;;
78858;SDS011;68210;52.032;4.634;2024-02-14T04:51:49;23.02;;;9.90;;
78858;SDS011;68210;52.032;4.634;2024-02-14T04:53:49;21.85;;;9.98;;
78858;SDS011;68210;52.032;4.634;2024-02-14T04:55:50;17.88;;;9.88;;
78858;SDS011;68210;52.032;4.634;2024-02-14T04:57:50;22.92;;;10.57;;
78858;SDS011;68210;52.032;4.634;2024-02-14T04:59:50;22.15;;;10.55;;
78858;SDS011;68210;52.032;4.634;2024-02-14T05:01:51;21.13;;;10.25;;
78858;SDS011;68210;52.032;4.634;2024-02-14T05:03:53;20.38;;;9.90;;
78858;SDS011;68210;52.032;4.634;2024-02-14T05:05:53;21.92;;;9.68;;
78858;SDS011;68210;52.032;4.634;2024-02-14T05:07:54;18.13;;;9.68;;
78858;SDS011;68210;52.032;4.634;2024-02-14T05:09:54;28.75;;;10.48;;
78858;SDS011;68210;52.032;4.634;2024-02-14T05:11:56;17.08;;;9.20;;
78858;SDS011;68210;52.032;4.634;2024-02-14T05:13:57;19.23;;;9.30;;
78858;SDS011;68210;52.032;4.634;2024-02-14T05:15:57;21.90;;;9.60;;
78858;SDS011;68210;52.032;4.634;2024-02-14T05:17:57;20.65;;;9.10;;
78858;SDS011;68210;52.032;4.634;2024-02-14T05:19:58;20.30;;;8.85;;
78858;SDS011;68210;52.032;4.634;2024-02-14T05:21:58;16.88;;;8.45;;
78858;SDS011;68210;52.032;4.634;2024-02-14T05:23:59;12.65;;;7.03;;
78858;SDS011;68210;52.032;4.634;2024-02-14T05:26:02;15.00;;;7.15;;
78858;SDS011;68210;52.032;4.634;2024-02-14T05:28:02;13.25;;;7.07;;
78858;SDS011;68210;52.032;4.634;2024-02-14T05:30:03;14.88;;;7.57;;
78858;SDS011;68210;52.032;4.634;2024-02-14T05:32:09;16.70;;;8.15;;
78858;SDS011;68210;52.032;4.634;2024-02-14T05:34:09;13.38;;;6.30;;
78858;SDS011;68210;52.032;4.634;2024-02-14T05:36:10;11.95;;;7.13;;
78858;SDS011;68210;52.032;4.634;2024-02-14T05:38:10;14.75;;;7.15;;
78858;SDS011;68210;52.032;4.634;2024-02-14T05:40:11;15.25;;;6.75;;
78858;SDS011;68210;52.032;4.634;2024-02-14T05:42:11;12.43;;;6.97;;
78858;SDS011;68210;52.032;4.634;2024-02-14T05:44:12;12.60;;;6.70;;
78858;SDS011;68210;52.032;4.634;2024-02-14T05:46:12;12.85;;;6.47;;
78858;SDS011;68210;52.032;4.634;2024-02-14T05:48:13;17.08;;;7.38;;
78858;SDS011;68210;52.032;4.634;2024-02-14T05:50:14;13.45;;;7.50;;
78858;SDS011;68210;52.032;4.634;2024-02-14T05:52:15;13.07;;;7.57;;
78858;SDS011;68210;52.032;4.634;2024-02-14T05:54:16;17.60;;;8.65;;
78858;SDS011;68210;52.032;4.634;2024-02-14T05:56:16;19.52;;;9.25;;
78858;SDS011;68210;52.032;4.634;2024-02-14T05:58:16;19.40;;;10.60;;
78858;SDS011;68210;52.032;4.634;2024-02-14T06:00:17;20.60;;;10.57;;
78858;SDS011;68210;52.032;4.634;2024-02-14T06:02:18;17.90;;;10.77;;
78858;SDS011;68210;52.032;4.634;2024-02-14T06:04:19;21.15;;;12.70;;
78858;SDS011;68210;52.032;4.634;2024-02-14T06:06:19;20.85;;;11.32;;
78858;SDS011;68210;52.032;4.634;2024-02-14T06:08:19;24.63;;;14.13;;
78858;SDS011;68210;52.032;4.634;2024-02-14T06:10:20;25.40;;;13.98;;
78858;SDS011;68210;52.032;4.634;2024-02-14T06:12:21;27.88;;;14.07;;
78858;SDS011;68210;52.032;4.634;2024-02-14T06:14:21;30.42;;;15.90;;
78858;SDS011;68210;52.032;4.634;2024-02-14T06:16:21;29.25;;;14.52;;
78858;SDS011;68210;52.032;4.634;2024-02-14T06:18:22;25.83;;;14.02;;
78858;SDS011;68210;52.032;4.634;2024-02-14T06:20:22;28.85;;;14.40;;
78858;SDS011;68210;52.032;4.634;2024-02-14T06:22:22;27.10;;;14.32;;
78858;SDS011;68210;52.032;4.634;2024-02-14T06:24:23;28.80;;;15.55;;
78858;SDS011;68210;52.032;4.634;2024-02-14T06:26:23;32.63;;;15.48;;
78858;SDS011;68210;52.032;4.634;2024-02-14T06:28:24;25.13;;;13.90;;
78858;SDS011;68210;52.032;4.634;2024-02-14T06:30:24;33.22;;;15.32;;
78858;SDS011;68210;52.032;4.634;2024-02-14T06:32:25;30.35;;;17.15;;
78858;SDS011;68210;52.032;4.634;2024-02-14T06:34:25;34.40;;;16.30;;
78858;SDS011;68210;52.032;4.634;2024-02-14T06:36:28;26.83;;;14.85;;
78858;SDS011;68210;52.032;4.634;2024-02-14T06:38:28;26.85;;;15.55;;
78858;SDS011;68210;52.032;4.634;2024-02-14T06:40:28;27.60;;;15.25;;
78858;SDS011;68210;52.032;4.634;2024-02-14T06:42:29;29.88;;;16.50;;
78858;SDS011;68210;52.032;4.634;2024-02-14T06:44:29;31.92;;;16.63;;
78858;SDS011;68210;52.032;4.634;2024-02-14T06:46:30;31.15;;;15.90;;
78858;SDS011;68210;52.032;4.634;2024-02-14T06:48:30;29.95;;;15.73;;
78858;SDS011;68210;52.032;4.634;2024-02-14T06:50:31;28.10;;;15.30;;
78858;SDS011;68210;52.032;4.634;2024-02-14T06:52:31;31.92;;;15.27;;
78858;SDS011;68210;52.032;4.634;2024-02-14T06:54:31;30.40;;;15.43;;
78858;SDS011;68210;52.032;4.634;2024-02-14T06:56:32;27.83;;;14.50;;
78858;SDS011;68210;52.032;4.634;2024-02-14T06:58:35;27.50;;;15.27;;
78858;SDS011;68210;52.032;4.634;2024-02-14T07:00:35;35.00;;;16.15;;
78858;SDS011;68210;52.032;4.634;2024-02-14T07:02:39;30.30;;;14.30;;
78858;SDS011;68210;52.032;4.634;2024-02-14T07:04:39;30.17;;;15.90;;
78858;SDS011;68210;52.032;4.634;2024-02-14T07:06:40;28.52;;;15.77;;
78858;SDS011;68210;52.032;4.634;2024-02-14T07:08:40;26.63;;;15.20;;
78858;SDS011;68210;52.032;4.634;2024-02-14T07:10:41;27.10;;;14.32;;
78858;SDS011;68210;52.032;4.634;2024-02-14T07:12:41;25.42;;;14.80;;
78858;SDS011;68210;52.032;4.634;2024-02-14T07:14:42;28.55;;;15.00;;
78858;SDS011;68210;52.032;4.634;2024-02-14T07:16:42;26.20;;;14.55;;
78858;SDS011;68210;52.032;4.634;2024-02-14T07:18:42;25.77;;;14.48;;
78858;SDS011;68210;52.032;4.634;2024-02-14T07:20:43;27.85;;;14.75;;
78858;SDS011;68210;52.032;4.634;2024-02-14T07:22:43;24.52;;;13.32;;
78858;SDS011;68210;52.032;4.634;2024-02-14T07:24:47;25.00;;;12.85;;
78858;SDS011;68210;52.032;4.634;2024-02-14T07:26:47;26.17;;;13.85;;
78858;SDS011;68210;52.032;4.634;2024-02-14T07:28:48;22.65;;;12.02;;
78858;SDS011;68210;52.032;4.634;2024-02-14T07:30:48;22.92;;;12.63;;
78858;SDS011;68210;52.032;4.634;2024-02-14T07:32:49;20.58;;;13.35;;
78858;SDS011;68210;52.032;4.634;2024-02-14T07:34:51;22.63;;;12.80;;
78858;SDS011;68210;52.032;4.634;2024-02-14T07:36:51;20.75;;;12.00;;
78858;SDS011;68210;52.032;4.634;2024-02-14T07:38:51;20.98;;;11.63;;
78858;SDS011;68210;52.032;4.634;2024-02-14T07:40:52;23.40;;;13.07;;
78858;SDS011;68210;52.032;4.634;2024-02-14T07:42:52;21.40;;;11.52;;
78858;SDS011;68210;52.032;4.634;2024-02-14T07:44:53;18.73;;;10.65;;
78858;SDS011;68210;52.032;4.634;2024-02-14T07:48:56;19.80;;;12.57;;
78858;SDS011;68210;52.032;4.634;2024-02-14T07:50:57;21.77;;;12.30;;
78858;SDS011;68210;52.032;4.634;2024-02-14T07:52:59;20.95;;;12.10;;
78858;SDS011;68210;52.032;4.634;2024-02-14T07:54:59;18.83;;;11.63;;
78858;SDS011;68210;52.032;4.634;2024-02-14T07:57:00;19.55;;;11.30;;
78858;SDS011;68210;52.032;4.634;2024-02-14T07:59:00;19.23;;;11.07;;
78858;SDS011;68210;52.032;4.634;2024-02-14T08:01:00;19.13;;;11.85;;
78858;SDS011;68210;52.032;4.634;2024-02-14T08:03:01;22.25;;;11.27;;
78858;SDS011;68210;52.032;4.634;2024-02-14T08:05:03;20.63;;;11.95;;
78858;SDS011;68210;52.032;4.634;2024-02-14T08:07:09;17.60;;;10.90;;
78858;SDS011;68210;52.032;4.634;2024-02-14T08:09:09;20.63;;;11.70;;
78858;SDS011;68210;52.032;4.634;2024-02-14T08:11:10;20.90;;;11.63;;
78858;SDS011;68210;52.032;4.634;2024-02-14T08:13:10;15.25;;;9.70;;
78858;SDS011;68210;52.032;4.634;2024-02-14T08:15:15;13.02;;;8.90;;
78858;SDS011;68210;52.032;4.634;2024-02-14T08:17:16;12.52;;;8.27;;
78858;SDS011;68210;52.032;4.634;2024-02-14T08:19:16;14.48;;;8.02;;
78858;SDS011;68210;52.032;4.634;2024-02-14T08:21:17;10.18;;;7.10;;
78858;SDS011;68210;52.032;4.634;2024-02-14T08:23:17;10.77;;;6.72;;
78858;SDS011;68210;52.032;4.634;2024-02-14T08:25:18;11.52;;;6.38;;
78858;SDS011;68210;52.032;4.634;2024-02-14T08:27:18;7.35;;;5.18;;
78858;SDS011;68210;52.032;4.634;2024-02-14T08:29:19;10.32;;;6.53;;
78858;SDS011;68210;52.032;4.634;2024-02-14T08:31:19;10.77;;;6.50;;
78858;SDS011;68210;52.032;4.634;2024-02-14T08:33:20;11.15;;;6.80;;
78858;SDS011;68210;52.032;4.634;2024-02-14T08:35:20;10.88;;;6.95;;
78858;SDS011;68210;52.032;4.634;2024-02-14T08:37:21;12.75;;;7.72;;
78858;SDS011;68210;52.032;4.634;2024-02-14T08:39:24;11.95;;;8.13;;
78858;SDS011;68210;52.032;4.634;2024-02-14T08:41:26;11.48;;;7.80;;
78858;SDS011;68210;52.032;4.634;2024-02-14T08:43:26;13.60;;;8.25;;
78858;SDS011;68210;52.032;4.634;2024-02-14T08:45:28;15.18;;;8.45;;
78858;SDS011;68210;52.032;4.634;2024-02-14T08:47:30;15.07;;;9.05;;
78858;SDS011;68210;52.032;4.634;2024-02-14T08:49:30;21.30;;;11.00;;
78858;SDS011;68210;52.032;4.634;2024-02-14T08:51:31;18.48;;;10.10;;
78858;SDS011;68210;52.032;4.634;2024-02-14T08:53:31;21.77;;;11.20;;
78858;SDS011;68210;52.032;4.634;2024-02-14T08:55:31;21.85;;;11.65;;
78858;SDS011;68210;52.032;4.634;2024-02-14T08:57:33;21.80;;;11.85;;
78858;SDS011;68210;52.032;4.634;2024-02-14T08:59:34;22.50;;;11.85;;
78858;SDS011;68210;52.032;4.634;2024-02-14T09:01:34;25.63;;;13.82;;
78858;SDS011;68210;52.032;4.634;2024-02-14T09:03:38;28.42;;;14.00;;
78858;SDS011;68210;52.032;4.634;2024-02-14T09:05:39;25.70;;;14.15;;
78858;SDS011;68210;52.032;4.634;2024-02-14T09:07:39;27.23;;;14.43;;
78858;SDS011;68210;52.032;4.634;2024-02-14T09:09:41;23.50;;;13.75;;
78858;SDS011;68210;52.032;4.634;2024-02-14T09:11:42;22.73;;;13.20;;
78858;SDS011;68210;52.032;4.634;2024-02-14T09:13:42;22.77;;;11.98;;
78858;SDS011;68210;52.032;4.634;2024-02-14T09:15:42;21.77;;;12.48;;
78858;SDS011;68210;52.032;4.634;2024-02-14T09:17:43;18.25;;;11.10;;
78858;SDS011;68210;52.032;4.634;2024-02-14T09:19:43;18.27;;;10.32;;
78858;SDS011;68210;52.032;4.634;2024-02-14T09:21:44;16.50;;;10.70;;
78858;SDS011;68210;52.032;4.634;2024-02-14T09:23:44;18.05;;;10.23;;
78858;SDS011;68210;52.032;4.634;2024-02-14T09:25:45;12.80;;;8.80;;
78858;SDS011;68210;52.032;4.634;2024-02-14T09:27:47;13.18;;;8.23;;
78858;SDS011;68210;52.032;4.634;2024-02-14T09:29:48;13.38;;;8.40;;
78858;SDS011;68210;52.032;4.634;2024-02-14T09:31:50;12.43;;;8.25;;
78858;SDS011;68210;52.032;4.634;2024-02-14T09:33:51;11.77;;;7.82;;
78858;SDS011;68210;52.032;4.634;2024-02-14T09:35:56;13.27;;;7.80;;
78858;SDS011;68210;52.032;4.634;2024-02-14T09:37:57;12.27;;;7.10;;
78858;SDS011;68210;52.032;4.634;2024-02-14T09:39:57;12.45;;;7.60;;
78858;SDS011;68210;52.032;4.634;2024-02-14T09:42:00;13.57;;;6.90;;
78858;SDS011;68210;52.032;4.634;2024-02-14T09:44:02;10.25;;;7.13;;
78858;SDS011;68210;52.032;4.634;2024-02-14T09:46:03;12.43;;;6.60;;
78858;SDS011;68210;52.032;4.634;2024-02-14T09:48:04;11.15;;;6.78;;
78858;SDS011;68210;52.032;4.634;2024-02-14T09:50:05;9.82;;;6.68;;
78858;SDS011;68210;52.032;4.634;2024-02-14T09:52:08;11.25;;;7.10;;
78858;SDS011;68210;52.032;4.634;2024-02-14T09:54:11;11.43;;;8.00;;
78858;SDS011;68210;52.032;4.634;2024-02-14T09:56:12;10.80;;;7.85;;
78858;SDS011;68210;52.032;4.634;2024-02-14T09:58:13;11.25;;;7.45;;
78858;SDS011;68210;52.032;4.634;2024-02-14T10:00:14;11.40;;;7.65;;
78858;SDS011;68210;52.032;4.634;2024-02-14T10:02:15;12.00;;;7.28;;
78858;SDS011;68210;52.032;4.634;2024-02-14T10:04:18;10.50;;;7.07;;
78858;SDS011;68210;52.032;4.634;2024-02-14T10:06:20;11.68;;;7.38;;
78858;SDS011;68210;52.032;4.634;2024-02-14T10:08:22;11.00;;;6.13;;
78858;SDS011;68210;52.032;4.634;2024-02-14T10:10:22;8.98;;;5.95;;
78858;SDS011;68210;52.032;4.634;2024-02-14T10:12:23;9.70;;;7.00;;
78858;SDS011;68210;52.032;4.634;2024-02-14T10:14:23;10.32;;;6.95;;
78858;SDS011;68210;52.032;4.634;2024-02-14T10:16:25;12.15;;;7.00;;
78858;SDS011;68210;52.032;4.634;2024-02-14T10:18:26;10.95;;;6.28;;
78858;SDS011;68210;52.032;4.634;2024-02-14T10:20:26;10.18;;;7.07;;
78858;SDS011;68210;52.032;4.634;2024-02-14T10:22:37;11.32;;;6.30;;
78858;SDS011;68210;52.032;4.634;2024-02-14T10:24:38;10.82;;;6.28;;
78858;SDS011;68210;52.032;4.634;2024-02-14T10:26:38;9.52;;;6.13;;
78858;SDS011;68210;52.032;4.634;2024-02-14T10:28:42;7.90;;;5.22;;
78858;SDS011;68210;52.032;4.634;2024-02-14T10:30:45;7.63;;;5.35;;
78858;SDS011;68210;52.032;4.634;2024-02-14T10:32:46;7.22;;;4.90;;
78858;SDS011;68210;52.032;4.634;2024-02-14T10:34:48;10.23;;;4.95;;
78858;SDS011;68210;52.032;4.634;2024-02-14T10:36:49;9.13;;;5.55;;
78858;SDS011;68210;52.032;4.634;2024-02-14T10:38:53;7.85;;;4.97;;
78858;SDS011;68210;52.032;4.634;2024-02-14T10:40:56;6.32;;;4.50;;
78858;SDS011;68210;52.032;4.634;2024-02-14T10:43:00;5.97;;;4.88;;
78858;SDS011;68210;52.032;4.634;2024-02-14T10:45:01;6.05;;;4.43;;
78858;SDS011;68210;52.032;4.634;2024-02-14T10:47:02;8.32;;;4.95;;
78858;SDS011;68210;52.032;4.634;2024-02-14T10:49:07;7.93;;;4.72;;
78858;SDS011;68210;52.032;4.634;2024-02-14T10:51:09;9.00;;;5.15;;
78858;SDS011;68210;52.032;4.634;2024-02-14T10:53:13;7.32;;;5.07;;
78858;SDS011;68210;52.032;4.634;2024-02-14T10:55:15;7.65;;;5.72;;
78858;SDS011;68210;52.032;4.634;2024-02-14T10:57:17;7.13;;;5.47;;
78858;SDS011;68210;52.032;4.634;2024-02-14T10:59:21;8.95;;;5.55;;
78858;SDS011;68210;52.032;4.634;2024-02-14T11:01:24;7.78;;;5.85;;
78858;SDS011;68210;52.032;4.634;2024-02-14T11:03:27;7.90;;;5.68;;
78858;SDS011;68210;52.032;4.634;2024-02-14T11:05:30;8.35;;;5.78;;
78858;SDS011;68210;52.032;4.634;2024-02-14T11:07:31;8.30;;;5.70;;
78858;SDS011;68210;52.032;4.634;2024-02-14T11:09:32;7.75;;;6.30;;
78858;SDS011;68210;52.032;4.634;2024-02-14T11:11:36;10.65;;;6.80;;
78858;SDS011;68210;52.032;4.634;2024-02-14T11:13:37;10.02;;;7.70;;
78858;SDS011;68210;52.032;4.634;2024-02-14T11:15:37;9.38;;;6.93;;
78858;SDS011;68210;52.032;4.634;2024-02-14T11:17:40;10.32;;;7.30;;
78858;SDS011;68210;52.032;4.634;2024-02-14T11:19:46;13.13;;;7.90;;
78858;SDS011;68210;52.032;4.634;2024-02-14T11:21:46;10.65;;;7.13;;
78858;SDS011;68210;52.032;4.634;2024-02-14T11:23:54;9.95;;;7.22;;
78858;SDS011;68210;52.032;4.634;2024-02-14T11:26:01;8.48;;;6.30;;
78858;SDS011;68210;52.032;4.634;2024-02-14T11:28:15;9.63;;;5.53;;
78858;SDS011;68210;52.032;4.634;2024-02-14T11:30:26;9.93;;;5.80;;
78858;SDS011;68210;52.032;4.634;2024-02-14T11:32:31;9.13;;;5.15;;
78858;SDS011;68210;52.032;4.634;2024-02-14T11:34:42;9.10;;;5.18;;
78858;SDS011;68210;52.032;4.634;2024-02-14T11:37:08;8.20;;;5.93;;
78858;SDS011;68210;52.032;4.634;2024-02-14T11:39:09;8.30;;;5.43;;
78858;SDS011;68210;52.032;4.634;2024-02-14T11:41:12;10.25;;;4.88;;
78858;SDS011;68210;52.032;4.634;2024-02-14T11:43:13;10.10;;;5.57;;
78858;SDS011;68210;52.032;4.634;2024-02-14T11:45:18;7.28;;;4.95;;
78858;SDS011;68210;52.032;4.634;2024-02-14T11:47:19;8.25;;;5.63;;
78858;SDS011;68210;52.032;4.634;2024-02-14T11:49:19;8.13;;;5.35;;
78858;SDS011;68210;52.032;4.634;2024-02-14T11:51:20;9.25;;;4.90;;
78858;SDS011;68210;52.032;4.634;2024-02-14T11:53:21;8.40;;;5.50;;
78858;SDS011;68210;52.032;4.634;2024-02-14T11:55:27;6.50;;;4.75;;
78858;SDS011;68210;52.032;4.634;2024-02-14T11:57:28;9.05;;;5.30;;
78858;SDS011;68210;52.032;4.634;2024-02-14T11:59:28;6.07;;;5.22;;
78858;SDS011;68210;52.032;4.634;2024-02-14T12:01:32;8.30;;;4.90;;